This is the latest recevied weather packets stored in our database for station/object K1ABC. If no packets are shown the sender has not sent any weather packets the latest 1 day(s).
| Time | Temp. | Humidity | Pressure | Rain* | Wind** | Luminosity | Snow |
|---|---|---|---|---|---|---|---|
| 1777995993 | 25° C | 45% | 1008.1 hPa | 0 mm | 1.79 m/s, 207° | - | - |
| 1777995789 | 25° C | 44% | 1008.1 hPa | 0 mm | 1.79 m/s, 225° | - | - |
| 1777995462 | 24.44° C | 44% | 1008 hPa | 0 mm | 1.79 m/s, 217° | - | - |
| 1777994635 | 23.89° C | 47% | 1008.3 hPa | 0 mm | 1.79 m/s, 279° | - | - |
| 1777994432 | 23.89° C | 46% | 1008.3 hPa | 0 mm | 1.79 m/s, 243° | - | - |
| 1777993111 | 23.33° C | 50% | 1008.5 hPa | 0 mm | 1.79 m/s, 218° | - | - |
| 1777992152 | 22.78° C | 50% | 1008.5 hPa | 0 mm | 1.79 m/s, 203° | - | - |
| 1777991329 | 21.67° C | 51% | 1008.5 hPa | 0 mm | 1.79 m/s, 269° | - | - |
| 1777990508 | 21.11° C | 53% | 1008.6 hPa | 0 mm | 1.79 m/s, 225° | - | - |
| 1777990303 | 20.56° C | 54% | 1008.5 hPa | 0 mm | 1.79 m/s, 225° | - | - |
| 1777989605 | 20.56° C | 53% | 1008.5 hPa | 0 mm | 1.79 m/s, 184° | - | - |
| 1777989162 | 20.56° C | 54% | 1008.5 hPa | 0 mm | 1.79 m/s, 225° | - | - |
| 1777986810 | 20° C | 55% | 1008.6 hPa | 0 mm | 1.34 m/s, 252° | - | - |
| 1777986239 | 19.44° C | 56% | 1008.6 hPa | 0 mm | 1.34 m/s, 184° | - | - |
| 1777985789 | 18.89° C | 57% | 1008.6 hPa | 0 mm | 1.34 m/s, 241° | - | - |
| 1777985470 | 18.89° C | 57% | 1008.8 hPa | 0 mm | 1.34 m/s, 252° | - | - |
| 1777983667 | 18.33° C | 59% | 1008.8 hPa | 0 mm | 1.79 m/s, 223° | - | - |
| 1777983089 | 17.78° C | 59% | 1008.4 hPa | 0 mm | 1.79 m/s, 251° | - | - |
| 1777979255 | 14.44° C | 66% | 1008.5 hPa | 0 mm | 0.45 m/s, 239° | - | - |
| 1777978311 | 13.33° C | 69% | 1008.6 hPa | 0 mm | 0.89 m/s, 212° | - | - |
| 1777977612 | 12.78° C | 69% | 1008.7 hPa | 0 mm | 0.45 m/s, 213° | - | - |
| 1777976297 | 12.78° C | 68% | 1008.6 hPa | 0 mm | 0.45 m/s, 242° | - | - |
| 1777976095 | 12.78° C | 69% | 1008.8 hPa | 0 mm | 0.45 m/s, 169° | - | - |
| 1777975896 | 12.78° C | 69% | 1008.7 hPa | 0 mm | 0.45 m/s, 204° | - | - |
| 1777975448 | 12.22° C | 69% | 1008.6 hPa | 0 mm | 0.45 m/s, 206° | - | - |
* Rain latest hour (hover to see other rain measurements)
** Current wind speed in m/s (hover to see current wind gust speed)